sensor_id;sensor_type;location;lat;lon;timestamp;pressure;altitude;pressure_sealevel;temperature;humidity
47913;BME280;33676;51.006;17.180;2023-02-28T00:01:36;101618.64;;;0.77;84.19
47913;BME280;33676;51.006;17.180;2023-02-28T00:04:04;101617.59;;;0.78;84.28
47913;BME280;33676;51.006;17.180;2023-02-28T00:06:33;101614.46;;;0.80;84.19
47913;BME280;33676;51.006;17.180;2023-02-28T00:09:02;101612.19;;;0.82;84.21
47913;BME280;33676;51.006;17.180;2023-02-28T00:11:30;101614.40;;;0.84;84.46
47913;BME280;33676;51.006;17.180;2023-02-28T00:13:59;101610.95;;;0.84;84.50
47913;BME280;33676;51.006;17.180;2023-02-28T00:16:27;101611.09;;;0.86;84.11
47913;BME280;33676;51.006;17.180;2023-02-28T00:18:56;101610.04;;;0.87;84.10
47913;BME280;33676;51.006;17.180;2023-02-28T00:21:27;101613.14;;;0.88;83.93
47913;BME280;33676;51.006;17.180;2023-02-28T00:23:56;101609.34;;;0.88;84.30
47913;BME280;33676;51.006;17.180;2023-02-28T00:26:25;101609.84;;;0.89;84.10
47913;BME280;33676;51.006;17.180;2023-02-28T00:28:53;101610.86;;;0.89;84.14
47913;BME280;33676;51.006;17.180;2023-02-28T00:31:22;101609.65;;;0.90;83.96
47913;BME280;33676;51.006;17.180;2023-02-28T00:33:50;101607.08;;;0.89;83.34
47913;BME280;33676;51.006;17.180;2023-02-28T00:36:20;101612.23;;;0.90;83.03
47913;BME280;33676;51.006;17.180;2023-02-28T00:38:48;101606.89;;;0.90;83.21
47913;BME280;33676;51.006;17.180;2023-02-28T00:41:17;101606.02;;;0.92;83.09
47913;BME280;33676;51.006;17.180;2023-02-28T00:43:45;101604.98;;;0.92;83.08
47913;BME280;33676;51.006;17.180;2023-02-28T00:46:14;101601.86;;;0.93;82.99
47913;BME280;33676;51.006;17.180;2023-02-28T00:48:42;101604.25;;;0.94;82.85
47913;BME280;33676;51.006;17.180;2023-02-28T00:51:11;101607.87;;;0.93;82.51
47913;BME280;33676;51.006;17.180;2023-02-28T00:53:40;101609.08;;;0.93;82.77
47913;BME280;33676;51.006;17.180;2023-02-28T00:56:09;101605.64;;;0.93;82.70
47913;BME280;33676;51.006;17.180;2023-02-28T00:58:37;101605.30;;;0.93;82.67
47913;BME280;33676;51.006;17.180;2023-02-28T01:01:06;101603.40;;;0.93;82.58
47913;BME280;33676;51.006;17.180;2023-02-28T01:03:37;101602.72;;;0.92;82.87
47913;BME280;33676;51.006;17.180;2023-02-28T01:06:06;101603.94;;;0.92;82.97
47913;BME280;33676;51.006;17.180;2023-02-28T01:08:35;101603.09;;;0.91;82.65
47913;BME280;33676;51.006;17.180;2023-02-28T01:11:12;101599.84;;;0.90;83.01
47913;BME280;33676;51.006;17.180;2023-02-28T01:13:42;101603.98;;;0.89;82.80
47913;BME280;33676;51.006;17.180;2023-02-28T01:16:12;101604.34;;;0.88;83.05
47913;BME280;33676;51.006;17.180;2023-02-28T01:18:40;101602.80;;;0.88;82.94
47913;BME280;33676;51.006;17.180;2023-02-28T01:21:15;101600.24;;;0.86;83.21
47913;BME280;33676;51.006;17.180;2023-02-28T01:23:45;101596.48;;;0.84;83.30
47913;BME280;33676;51.006;17.180;2023-02-28T01:26:19;101592.75;;;0.81;83.06
47913;BME280;33676;51.006;17.180;2023-02-28T01:28:50;101595.20;;;0.79;83.00
47913;BME280;33676;51.006;17.180;2023-02-28T01:31:21;101596.63;;;0.76;82.97
47913;BME280;33676;51.006;17.180;2023-02-28T01:33:51;101596.14;;;0.74;82.85
47913;BME280;33676;51.006;17.180;2023-02-28T01:36:23;101596.35;;;0.72;82.89
47913;BME280;33676;51.006;17.180;2023-02-28T01:38:52;101592.61;;;0.69;82.98
47913;BME280;33676;51.006;17.180;2023-02-28T01:41:26;101591.60;;;0.67;83.00
47913;BME280;33676;51.006;17.180;2023-02-28T01:43:59;101594.39;;;0.65;82.82
47913;BME280;33676;51.006;17.180;2023-02-28T01:46:28;101593.23;;;0.62;82.96
47913;BME280;33676;51.006;17.180;2023-02-28T01:49:14;101591.55;;;0.60;82.67
47913;BME280;33676;51.006;17.180;2023-02-28T01:51:50;101593.64;;;0.58;82.65
47913;BME280;33676;51.006;17.180;2023-02-28T01:54:31;101591.10;;;0.55;82.47
47913;BME280;33676;51.006;17.180;2023-02-28T01:57:09;101592.53;;;0.52;82.39
47913;BME280;33676;51.006;17.180;2023-02-28T01:59:44;101595.52;;;0.49;82.65
47913;BME280;33676;51.006;17.180;2023-02-28T02:02:21;101597.48;;;0.45;82.55
47913;BME280;33676;51.006;17.180;2023-02-28T02:04:57;101599.59;;;0.43;82.60
47913;BME280;33676;51.006;17.180;2023-02-28T02:07:30;101601.67;;;0.40;82.53
47913;BME280;33676;51.006;17.180;2023-02-28T02:10:21;101596.35;;;0.40;82.57
47913;BME280;33676;51.006;17.180;2023-02-28T02:37:42;101588.51;;;0.23;82.60
47913;BME280;33676;51.006;17.180;2023-02-28T02:40:18;101595.27;;;0.19;82.82
47913;BME280;33676;51.006;17.180;2023-02-28T02:42:58;101592.02;;;0.18;82.87
47913;BME280;33676;51.006;17.180;2023-02-28T02:45:54;101592.73;;;0.15;82.84
47913;BME280;33676;51.006;17.180;2023-02-28T02:48:30;101591.92;;;0.13;83.04
47913;BME280;33676;51.006;17.180;2023-02-28T02:51:06;101588.16;;;0.11;83.05
47913;BME280;33676;51.006;17.180;2023-02-28T02:54:05;101587.15;;;0.10;83.20
47913;BME280;33676;51.006;17.180;2023-02-28T03:05:12;101589.92;;;0.08;83.29
47913;BME280;33676;51.006;17.180;2023-02-28T03:07:43;101592.36;;;0.05;83.28
47913;BME280;33676;51.006;17.180;2023-02-28T03:10:39;101593.74;;;0.05;83.20
47913;BME280;33676;51.006;17.180;2023-02-28T03:16:44;101595.66;;;0.03;83.50
47913;BME280;33676;51.006;17.180;2023-02-28T03:19:39;101595.57;;;-0.01;83.30
47913;BME280;33676;51.006;17.180;2023-02-28T03:22:39;101593.89;;;-0.04;83.26
47913;BME280;33676;51.006;17.180;2023-02-28T03:25:52;101595.13;;;-0.07;83.41
47913;BME280;33676;51.006;17.180;2023-02-28T03:28:52;101602.02;;;-0.08;83.42
47913;BME280;33676;51.006;17.180;2023-02-28T03:31:33;101597.42;;;-0.12;83.49
47913;BME280;33676;51.006;17.180;2023-02-28T03:34:33;101600.39;;;-0.15;83.77
47913;BME280;33676;51.006;17.180;2023-02-28T03:37:11;101603.35;;;-0.19;83.74
47913;BME280;33676;51.006;17.180;2023-02-28T03:40:00;101603.03;;;-0.21;83.81
47913;BME280;33676;51.006;17.180;2023-02-28T03:42:35;101605.81;;;-0.23;83.89
47913;BME280;33676;51.006;17.180;2023-02-28T03:45:18;101606.35;;;-0.25;83.96
47913;BME280;33676;51.006;17.180;2023-02-28T03:48:02;101608.94;;;-0.26;84.00
47913;BME280;33676;51.006;17.180;2023-02-28T03:50:42;101608.81;;;-0.30;83.95
47913;BME280;33676;51.006;17.180;2023-02-28T03:53:28;101611.77;;;-0.33;83.91
47913;BME280;33676;51.006;17.180;2023-02-28T03:56:38;101611.98;;;-0.38;84.05
47913;BME280;33676;51.006;17.180;2023-02-28T03:59:44;101610.32;;;-0.42;83.96
47913;BME280;33676;51.006;17.180;2023-02-28T04:02:14;101612.58;;;-0.44;84.08
47913;BME280;33676;51.006;17.180;2023-02-28T04:04:43;101615.86;;;-0.46;84.22
47913;BME280;33676;51.006;17.180;2023-02-28T04:07:17;101616.75;;;-0.48;84.23
47913;BME280;33676;51.006;17.180;2023-02-28T04:09:45;101615.05;;;-0.50;84.16
47913;BME280;33676;51.006;17.180;2023-02-28T04:12:14;101615.58;;;-0.51;84.36
47913;BME280;33676;51.006;17.180;2023-02-28T04:14:45;101615.77;;;-0.52;84.40
47913;BME280;33676;51.006;17.180;2023-02-28T04:17:15;101617.85;;;-0.53;84.45
47913;BME280;33676;51.006;17.180;2023-02-28T04:19:43;101621.13;;;-0.53;84.41
47913;BME280;33676;51.006;17.180;2023-02-28T04:22:12;101622.84;;;-0.54;84.55
47913;BME280;33676;51.006;17.180;2023-02-28T04:24:41;101621.14;;;-0.55;84.80
47913;BME280;33676;51.006;17.180;2023-02-28T04:27:10;101623.03;;;-0.55;84.82
47913;BME280;33676;51.006;17.180;2023-02-28T04:29:38;101621.50;;;-0.57;84.88
47913;BME280;33676;51.006;17.180;2023-02-28T04:32:07;101623.90;;;-0.57;84.63
47913;BME280;33676;51.006;17.180;2023-02-28T04:34:36;101621.67;;;-0.57;84.67
47913;BME280;33676;51.006;17.180;2023-02-28T04:37:05;101624.94;;;-0.57;84.83
47913;BME280;33676;51.006;17.180;2023-02-28T04:39:42;101627.36;;;-0.59;84.82
47913;BME280;33676;51.006;17.180;2023-02-28T04:42:11;101627.04;;;-0.60;85.06
47913;BME280;33676;51.006;17.180;2023-02-28T04:44:40;101627.23;;;-0.63;84.86
47913;BME280;33676;51.006;17.180;2023-02-28T04:47:10;101630.86;;;-0.65;84.90
47913;BME280;33676;51.006;17.180;2023-02-28T04:49:39;101628.46;;;-0.66;85.16
47913;BME280;33676;51.006;17.180;2023-02-28T04:52:07;101632.25;;;-0.67;85.21
47913;BME280;33676;51.006;17.180;2023-02-28T04:54:35;101633.62;;;-0.67;85.35
47913;BME280;33676;51.006;17.180;2023-02-28T04:57:06;101634.98;;;-0.67;85.47
47913;BME280;33676;51.006;17.180;2023-02-28T04:59:35;101634.83;;;-0.68;85.39
47913;BME280;33676;51.006;17.180;2023-02-28T05:02:03;101636.20;;;-0.68;85.45
47913;BME280;33676;51.006;17.180;2023-02-28T05:04:36;101634.84;;;-0.69;85.84
47913;BME280;33676;51.006;17.180;2023-02-28T05:07:05;101638.45;;;-0.69;85.67
47913;BME280;33676;51.006;17.180;2023-02-28T05:09:33;101638.97;;;-0.69;85.62
47913;BME280;33676;51.006;17.180;2023-02-28T05:12:02;101640.52;;;-0.70;85.73
47913;BME280;33676;51.006;17.180;2023-02-28T05:14:30;101640.70;;;-0.71;85.78
47913;BME280;33676;51.006;17.180;2023-02-28T05:17:01;101641.23;;;-0.73;85.86
47913;BME280;33676;51.006;17.180;2023-02-28T05:19:30;101640.03;;;-0.74;85.94
47913;BME280;33676;51.006;17.180;2023-02-28T05:21:58;101643.14;;;-0.75;86.05
47913;BME280;33676;51.006;17.180;2023-02-28T05:24:27;101641.95;;;-0.76;86.11
47913;BME280;33676;51.006;17.180;2023-02-28T05:26:55;101643.83;;;-0.76;86.03
47913;BME280;33676;51.006;17.180;2023-02-28T05:29:24;101646.06;;;-0.76;86.28
47913;BME280;33676;51.006;17.180;2023-02-28T05:31:52;101648.32;;;-0.78;86.23
47913;BME280;33676;51.006;17.180;2023-02-28T05:34:21;101653.65;;;-0.79;86.19
47913;BME280;33676;51.006;17.180;2023-02-28T05:36:49;101658.11;;;-0.78;86.25
47913;BME280;33676;51.006;17.180;2023-02-28T05:39:18;101659.30;;;-0.78;86.20
47913;BME280;33676;51.006;17.180;2023-02-28T05:41:46;101659.48;;;-0.77;86.38
47913;BME280;33676;51.006;17.180;2023-02-28T05:44:15;101661.68;;;-0.76;86.43
47913;BME280;33676;51.006;17.180;2023-02-28T05:46:44;101662.54;;;-0.75;86.24
47913;BME280;33676;51.006;17.180;2023-02-28T05:49:12;101664.42;;;-0.74;86.34
47913;BME280;33676;51.006;17.180;2023-02-28T05:51:40;101663.89;;;-0.73;86.17
47913;BME280;33676;51.006;17.180;2023-02-28T05:54:09;101666.80;;;-0.71;86.23
47913;BME280;33676;51.006;17.180;2023-02-28T05:56:40;101668.16;;;-0.70;86.21
47913;BME280;33676;51.006;17.180;2023-02-28T05:59:13;101670.20;;;-0.68;86.42
47913;BME280;33676;51.006;17.180;2023-02-28T06:01:45;101675.48;;;-0.63;86.48
47913;BME280;33676;51.006;17.180;2023-02-28T06:04:19;101680.42;;;-0.59;86.68
47913;BME280;33676;51.006;17.180;2023-02-28T06:07:01;101681.42;;;-0.54;86.84
47913;BME280;33676;51.006;17.180;2023-02-28T06:09:30;101684.27;;;-0.51;86.85
47913;BME280;33676;51.006;17.180;2023-02-28T06:12:00;101683.71;;;-0.46;86.76
47913;BME280;33676;51.006;17.180;2023-02-28T06:14:33;101688.31;;;-0.43;86.64
47913;BME280;33676;51.006;17.180;2023-02-28T06:17:03;101692.55;;;-0.37;86.92
47913;BME280;33676;51.006;17.180;2023-02-28T06:19:32;101697.33;;;-0.33;87.15
47913;BME280;33676;51.006;17.180;2023-02-28T06:22:00;101694.52;;;-0.28;87.14
47913;BME280;33676;51.006;17.180;2023-02-28T06:24:29;101696.36;;;-0.23;86.80
47913;BME280;33676;51.006;17.180;2023-02-28T06:26:58;101695.27;;;-0.18;86.99
47913;BME280;33676;51.006;17.180;2023-02-28T06:29:35;101696.77;;;-0.12;86.87
47913;BME280;33676;51.006;17.180;2023-02-28T06:32:03;101699.47;;;-0.09;86.86
47913;BME280;33676;51.006;17.180;2023-02-28T06:34:32;101703.70;;;-0.03;86.80
47913;BME280;33676;51.006;17.180;2023-02-28T06:37:02;101704.62;;;0.05;86.71
47913;BME280;33676;51.006;17.180;2023-02-28T06:39:31;101706.59;;;0.13;86.69
47913;BME280;33676;51.006;17.180;2023-02-28T06:41:59;101709.06;;;0.22;86.66
47913;BME280;33676;51.006;17.180;2023-02-28T06:44:28;101708.80;;;0.29;86.41
47913;BME280;33676;51.006;17.180;2023-02-28T06:47:05;101711.84;;;0.34;86.13
47913;BME280;33676;51.006;17.180;2023-02-28T06:49:35;101711.80;;;0.37;85.98
47913;BME280;33676;51.006;17.180;2023-02-28T06:52:04;101709.88;;;0.39;85.83
47913;BME280;33676;51.006;17.180;2023-02-28T06:54:33;101713.28;;;0.42;85.63
47913;BME280;33676;51.006;17.180;2023-02-28T06:57:01;101715.99;;;0.45;85.43
47913;BME280;33676;51.006;17.180;2023-02-28T06:59:30;101716.31;;;0.47;85.19
47913;BME280;33676;51.006;17.180;2023-02-28T07:01:59;101719.55;;;0.49;84.70
47913;BME280;33676;51.006;17.180;2023-02-28T07:04:28;101719.55;;;0.49;84.65
47913;BME280;33676;51.006;17.180;2023-02-28T07:07:22;101719.52;;;0.51;84.51
47913;BME280;33676;51.006;17.180;2023-02-28T07:09:50;101719.14;;;0.52;84.55
47913;BME280;33676;51.006;17.180;2023-02-28T07:12:19;101719.11;;;0.54;84.40
47913;BME280;33676;51.006;17.180;2023-02-28T07:14:47;101717.87;;;0.57;84.41
47913;BME280;33676;51.006;17.180;2023-02-28T07:17:16;101719.21;;;0.59;84.48
47913;BME280;33676;51.006;17.180;2023-02-28T07:19:44;101717.97;;;0.62;84.38
47913;BME280;33676;51.006;17.180;2023-02-28T07:22:13;101715.55;;;0.64;84.45
47913;BME280;33676;51.006;17.180;2023-02-28T07:24:43;101717.42;;;0.64;84.18
47913;BME280;33676;51.006;17.180;2023-02-28T07:27:11;101717.75;;;0.67;84.09
47913;BME280;33676;51.006;17.180;2023-02-28T07:29:40;101719.26;;;0.69;83.83
47913;BME280;33676;51.006;17.180;2023-02-28T07:32:08;101721.95;;;0.73;83.83
47913;BME280;33676;51.006;17.180;2023-02-28T07:34:37;101721.91;;;0.77;83.77
47913;BME280;33676;51.006;17.180;2023-02-28T07:37:05;101726.84;;;0.80;83.83
47913;BME280;33676;51.006;17.180;2023-02-28T07:39:34;101730.58;;;0.84;83.57
47913;BME280;33676;51.006;17.180;2023-02-28T07:42:06;101730.89;;;0.86;83.60
47913;BME280;33676;51.006;17.180;2023-02-28T07:44:39;101732.88;;;0.91;83.57
47913;BME280;33676;51.006;17.180;2023-02-28T07:47:10;101730.92;;;0.96;83.30
47913;BME280;33676;51.006;17.180;2023-02-28T07:49:38;101733.26;;;1.02;83.57
47913;BME280;33676;51.006;17.180;2023-02-28T07:52:07;101733.65;;;1.08;83.42
47913;BME280;33676;51.006;17.180;2023-02-28T07:54:37;101735.61;;;1.15;83.53
47913;BME280;33676;51.006;17.180;2023-02-28T07:57:06;101736.39;;;1.19;83.10
47913;BME280;33676;51.006;17.180;2023-02-28T07:59:34;101735.97;;;1.24;83.17
47913;BME280;33676;51.006;17.180;2023-02-28T08:02:03;101735.18;;;1.30;83.17
47913;BME280;33676;51.006;17.180;2023-02-28T08:04:32;101737.29;;;1.39;82.98
47913;BME280;33676;51.006;17.180;2023-02-28T08:07:01;101732.35;;;1.46;83.17
47913;BME280;33676;51.006;17.180;2023-02-28T08:09:29;101731.53;;;1.53;83.03
47913;BME280;33676;51.006;17.180;2023-02-28T08:11:58;101729.67;;;1.60;82.62
47913;BME280;33676;51.006;17.180;2023-02-28T08:14:26;101728.16;;;1.67;82.81
47913;BME280;33676;51.006;17.180;2023-02-28T08:16:55;101730.27;;;1.75;82.72
47913;BME280;33676;51.006;17.180;2023-02-28T08:19:23;101726.11;;;1.85;82.73
47913;BME280;33676;51.006;17.180;2023-02-28T08:21:52;101725.77;;;1.94;82.59
47913;BME280;33676;51.006;17.180;2023-02-28T08:24:20;101722.01;;;2.02;82.07
47913;BME280;33676;51.006;17.180;2023-02-28T08:26:49;101725.25;;;2.11;82.22
47913;BME280;33676;51.006;17.180;2023-02-28T08:29:18;101725.58;;;2.20;81.96
47913;BME280;33676;51.006;17.180;2023-02-28T08:31:46;101724.05;;;2.27;81.68
47913;BME280;33676;51.006;17.180;2023-02-28T08:34:16;101722.52;;;2.36;81.28
47913;BME280;33676;51.006;17.180;2023-02-28T08:36:44;101727.11;;;2.47;81.13
47913;BME280;33676;51.006;17.180;2023-02-28T08:39:13;101729.45;;;2.58;80.78
47913;BME280;33676;51.006;17.180;2023-02-28T08:41:42;101726.13;;;2.67;80.56
47913;BME280;33676;51.006;17.180;2023-02-28T08:44:12;101726.55;;;2.79;80.59
47913;BME280;33676;51.006;17.180;2023-02-28T08:46:40;101726.81;;;2.90;79.76
47913;BME280;33676;51.006;17.180;2023-02-28T08:49:12;101725.34;;;3.02;79.98
47913;BME280;33676;51.006;17.180;2023-02-28T08:51:41;101727.52;;;3.18;80.06
47913;BME280;33676;51.006;17.180;2023-02-28T08:54:10;101726.75;;;3.36;80.37
47913;BME280;33676;51.006;17.180;2023-02-28T08:56:40;101728.27;;;3.51;80.07
47913;BME280;33676;51.006;17.180;2023-02-28T08:59:09;101726.84;;;3.66;79.60
47913;BME280;33676;51.006;17.180;2023-02-28T09:01:37;101727.50;;;3.80;79.25
47913;BME280;33676;51.006;17.180;2023-02-28T09:04:06;101723.20;;;3.98;79.55
47913;BME280;33676;51.006;17.180;2023-02-28T09:06:37;101725.61;;;4.17;79.07
47913;BME280;33676;51.006;17.180;2023-02-28T09:09:07;101723.46;;;4.37;79.24
47913;BME280;33676;51.006;17.180;2023-02-28T09:11:36;101719.72;;;4.58;78.86
47913;BME280;33676;51.006;17.180;2023-02-28T09:14:04;101718.55;;;4.79;78.35
47913;BME280;33676;51.006;17.180;2023-02-28T09:16:34;101722.56;;;5.00;78.62
47913;BME280;33676;51.006;17.180;2023-02-28T09:19:03;101719.58;;;5.27;78.70
47913;BME280;33676;51.006;17.180;2023-02-28T09:21:31;101718.52;;;5.54;78.50
47913;BME280;33676;51.006;17.180;2023-02-28T09:24:00;101717.73;;;5.82;78.28
47913;BME280;33676;51.006;17.180;2023-02-28T09:26:28;101714.22;;;6.08;78.28
47913;BME280;33676;51.006;17.180;2023-02-28T09:29:31;101713.31;;;6.41;77.45
47913;BME280;33676;51.006;17.180;2023-02-28T09:32:01;101712.39;;;6.56;76.00
47913;BME280;33676;51.006;17.180;2023-02-28T09:34:30;101711.70;;;6.70;75.77
47913;BME280;33676;51.006;17.180;2023-02-28T09:36:59;101707.34;;;6.87;75.70
47913;BME280;33676;51.006;17.180;2023-02-28T09:39:27;101703.96;;;7.11;76.02
47913;BME280;33676;51.006;17.180;2023-02-28T09:41:56;101698.46;;;7.38;76.12
47913;BME280;33676;51.006;17.180;2023-02-28T09:44:43;101694.18;;;7.65;76.05
47913;BME280;33676;51.006;17.180;2023-02-28T09:47:47;101691.70;;;7.93;75.26
47913;BME280;33676;51.006;17.180;2023-02-28T09:52:55;101693.11;;;8.43;75.27
47913;BME280;33676;51.006;17.180;2023-02-28T09:55:44;101698.11;;;8.71;74.81
47913;BME280;33676;51.006;17.180;2023-02-28T09:58:42;101703.45;;;9.00;74.62
47913;BME280;33676;51.006;17.180;2023-02-28T10:01:33;101702.20;;;9.29;74.23
47913;BME280;33676;51.006;17.180;2023-02-28T10:04:41;101705.68;;;9.53;73.78
47913;BME280;33676;51.006;17.180;2023-02-28T10:07:27;101703.21;;;9.84;73.57
47913;BME280;33676;51.006;17.180;2023-02-28T10:10:06;101705.94;;;10.15;73.71
47913;BME280;33676;51.006;17.180;2023-02-28T10:12:44;101712.31;;;10.43;73.36
47913;BME280;33676;51.006;17.180;2023-02-28T10:15:16;101713.70;;;10.72;73.26
47913;BME280;33676;51.006;17.180;2023-02-28T10:17:51;101710.94;;;10.99;72.92
47913;BME280;33676;51.006;17.180;2023-02-28T10:20:42;101708.43;;;11.27;72.59
47913;BME280;33676;51.006;17.180;2023-02-28T10:23:35;101713.88;;;11.59;72.37
47913;BME280;33676;51.006;17.180;2023-02-28T10:26:14;101707.00;;;11.98;72.32
47913;BME280;33676;51.006;17.180;2023-02-28T10:28:45;101708.23;;;12.29;71.90
47913;BME280;33676;51.006;17.180;2023-02-28T10:31:19;101706.72;;;12.50;71.38
47913;BME280;33676;51.006;17.180;2023-02-28T10:33:48;101708.35;;;12.71;70.47
47913;BME280;33676;51.006;17.180;2023-02-28T10:36:20;101705.48;;;12.91;69.96
47913;BME280;33676;51.006;17.180;2023-02-28T10:38:49;101701.65;;;13.09;69.53
47913;BME280;33676;51.006;17.180;2023-02-28T10:41:31;101700.79;;;13.31;69.41
47913;BME280;33676;51.006;17.180;2023-02-28T10:44:21;101697.28;;;13.51;68.68
47913;BME280;33676;51.006;17.180;2023-02-28T10:46:50;101692.41;;;13.66;68.36
47913;BME280;33676;51.006;17.180;2023-02-28T10:49:26;101687.27;;;13.81;68.00
47913;BME280;33676;51.006;17.180;2023-02-28T10:51:59;101688.76;;;13.86;67.01
47913;BME280;33676;51.006;17.180;2023-02-28T10:54:36;101688.44;;;13.80;66.14
47913;BME280;33676;51.006;17.180;2023-02-28T10:57:24;101685.88;;;13.64;65.37
47913;BME280;33676;51.006;17.180;2023-02-28T11:02:54;101681.49;;;13.84;65.33
47913;BME280;33676;51.006;17.180;2023-02-28T11:05:35;101680.77;;;13.95;65.38
47913;BME280;33676;51.006;17.180;2023-02-28T11:08:15;101679.54;;;14.04;65.19
47913;BME280;33676;51.006;17.180;2023-02-28T11:10:54;101680.15;;;14.20;65.36
47913;BME280;33676;51.006;17.180;2023-02-28T11:13:35;101677.80;;;14.39;65.08
47913;BME280;33676;51.006;17.180;2023-02-28T11:16:10;101677.92;;;14.39;63.98
47913;BME280;33676;51.006;17.180;2023-02-28T11:18:57;101677.09;;;14.56;64.56
47913;BME280;33676;51.006;17.180;2023-02-28T11:21:37;101666.52;;;14.80;64.71
47913;BME280;33676;51.006;17.180;2023-02-28T11:24:40;101667.13;;;14.98;64.45
47913;BME280;33676;51.006;17.180;2023-02-28T11:27:45;101666.52;;;15.01;63.80
47913;BME280;33676;51.006;17.180;2023-02-28T11:30:35;101663.52;;;15.17;63.85
47913;BME280;33676;51.006;17.180;2023-02-28T11:33:31;101656.36;;;15.29;63.67
47913;BME280;33676;51.006;17.180;2023-02-28T11:36:13;101658.17;;;15.35;63.03
47913;BME280;33676;51.006;17.180;2023-02-28T11:38:42;101660.38;;;15.47;63.22
47913;BME280;33676;51.006;17.180;2023-02-28T11:47:38;101651.84;;;15.69;61.01
47913;BME280;33676;51.006;17.180;2023-02-28T11:50:27;101648.53;;;15.55;61.00
47913;BME280;33676;51.006;17.180;2023-02-28T11:53:19;101649.27;;;15.66;60.90
47913;BME280;33676;51.006;17.180;2023-02-28T11:56:11;101653.00;;;15.63;60.50
47913;BME280;33676;51.006;17.180;2023-02-28T12:01:40;101646.59;;;15.93;60.36
47913;BME280;33676;51.006;17.180;2023-02-28T12:08:27;101640.80;;;16.57;60.19
47913;BME280;33676;51.006;17.180;2023-02-28T12:17:02;101623.24;;;16.62;58.61
47913;BME280;33676;51.006;17.180;2023-02-28T12:28:26;101611.79;;;16.74;57.86
47913;BME280;33676;51.006;17.180;2023-02-28T12:31:09;101613.66;;;16.71;57.61
47913;BME280;33676;51.006;17.180;2023-02-28T12:33:51;101611.23;;;16.68;57.22
47913;BME280;33676;51.006;17.180;2023-02-28T12:36:20;101614.63;;;16.62;56.81
47913;BME280;33676;51.006;17.180;2023-02-28T12:39:03;101613.48;;;16.58;56.39
47913;BME280;33676;51.006;17.180;2023-02-28T12:41:49;101606.89;;;16.48;56.03
47913;BME280;33676;51.006;17.180;2023-02-28T12:44:30;101603.17;;;16.44;55.85
47913;BME280;33676;51.006;17.180;2023-02-28T12:47:04;101600.15;;;16.48;55.89
47913;BME280;33676;51.006;17.180;2023-02-28T12:49:42;101588.46;;;16.53;55.90
47913;BME280;33676;51.006;17.180;2023-02-28T12:52:18;101586.58;;;16.61;55.75
47913;BME280;33676;51.006;17.180;2023-02-28T12:55:01;101586.23;;;16.65;55.20
47913;BME280;33676;51.006;17.180;2023-02-28T13:00:25;101587.46;;;16.99;55.91
47913;BME280;33676;51.006;17.180;2023-02-28T13:03:33;101588.20;;;17.17;55.90
47913;BME280;33676;51.006;17.180;2023-02-28T13:09:18;101588.31;;;17.57;55.82
47913;BME280;33676;51.006;17.180;2023-02-28T13:11:54;101589.65;;;17.68;55.60
47913;BME280;33676;51.006;17.180;2023-02-28T13:14:50;101590.19;;;17.76;55.44
47913;BME280;33676;51.006;17.180;2023-02-28T13:17:21;101585.15;;;17.79;55.19
47913;BME280;33676;51.006;17.180;2023-02-28T13:24:55;101588.30;;;18.04;54.98
47913;BME280;33676;51.006;17.180;2023-02-28T13:27:31;101583.40;;;17.99;54.59
47913;BME280;33676;51.006;17.180;2023-02-28T13:30:49;101583.89;;;18.03;54.16
47913;BME280;33676;51.006;17.180;2023-02-28T13:39:00;101578.44;;;17.85;52.93
47913;BME280;33676;51.006;17.180;2023-02-28T13:47:21;101579.65;;;18.04;53.75
47913;BME280;33676;51.006;17.180;2023-02-28T13:49:27;101577.92;;;18.19;53.86
47913;BME280;33676;51.006;17.180;2023-02-28T13:55:13;101574.05;;;18.51;54.13
47913;BME280;33676;51.006;17.180;2023-02-28T14:00:57;101566.48;;;18.65;53.44
47913;BME280;33676;51.006;17.180;2023-02-28T14:06:23;101557.09;;;18.69;52.77
47913;BME280;33676;51.006;17.180;2023-02-28T14:09:15;101553.08;;;18.67;52.77
47913;BME280;33676;51.006;17.180;2023-02-28T14:11:46;101546.15;;;18.83;53.41
47913;BME280;33676;51.006;17.180;2023-02-28T14:17:15;101547.13;;;19.05;52.74
47913;BME280;33676;51.006;17.180;2023-02-28T14:30:43;101540.96;;;19.56;52.35
47913;BME280;33676;51.006;17.180;2023-02-28T14:36:14;101541.02;;;19.47;52.19
47913;BME280;33676;51.006;17.180;2023-02-28T14:38:52;101545.63;;;19.55;52.26
47913;BME280;33676;51.006;17.180;2023-02-28T14:41:31;101544.61;;;19.60;52.09
47913;BME280;33676;51.006;17.180;2023-02-28T14:44:26;101545.12;;;19.58;51.65
47913;BME280;33676;51.006;17.180;2023-02-28T14:47:02;101544.71;;;19.55;51.74
47913;BME280;33676;51.006;17.180;2023-02-28T14:49:37;101538.95;;;19.50;51.22
47913;BME280;33676;51.006;17.180;2023-02-28T14:52:30;101539.41;;;19.42;51.01
47913;BME280;33676;51.006;17.180;2023-02-28T14:55:09;101540.45;;;19.42;51.40
47913;BME280;33676;51.006;17.180;2023-02-28T14:57:51;101538.41;;;19.62;51.85
47913;BME280;33676;51.006;17.180;2023-02-28T15:00:48;101539.70;;;19.74;51.76
47913;BME280;33676;51.006;17.180;2023-02-28T15:03:25;101538.25;;;19.87;51.75
47913;BME280;33676;51.006;17.180;2023-02-28T15:06:02;101540.66;;;20.02;51.89
47913;BME280;33676;51.006;17.180;2023-02-28T15:08:32;101540.71;;;20.18;51.77
47913;BME280;33676;51.006;17.180;2023-02-28T15:11:09;101538.25;;;20.25;51.52
47913;BME280;33676;51.006;17.180;2023-02-28T15:13:44;101538.92;;;20.27;51.24
47913;BME280;33676;51.006;17.180;2023-02-28T15:16:37;101540.73;;;20.23;51.14
47913;BME280;33676;51.006;17.180;2023-02-28T15:19:28;101541.08;;;20.14;51.10
47913;BME280;33676;51.006;17.180;2023-02-28T15:22:07;101541.29;;;20.06;50.85
47913;BME280;33676;51.006;17.180;2023-02-28T15:24:47;101541.35;;;20.01;50.96